createdAt,value
2022-10-13T00:02:06.797Z,7.08
2022-10-13T00:07:08.627Z,7.01
2022-10-13T00:12:10.512Z,6.96
2022-10-13T00:17:12.017Z,6.89
2022-10-13T00:27:14.680Z,6.86
2022-10-13T00:37:17.542Z,6.74
2022-10-13T00:47:20.208Z,6.61
2022-10-13T00:52:21.693Z,6.58
2022-10-13T00:57:23.559Z,6.5
2022-10-13T01:02:25.647Z,6.42
2022-10-13T01:07:27.663Z,6.4
2022-10-13T01:12:29.832Z,6.31
2022-10-13T01:17:31.779Z,6.27
2022-10-13T01:22:33.575Z,6.16
2022-10-13T01:27:35.123Z,6.09
2022-10-13T01:32:37.147Z,6.05
2022-10-13T01:37:38.714Z,5.97
2022-10-13T01:42:40.535Z,5.97
2022-10-13T01:47:42.119Z,5.96
2022-10-13T01:52:43.793Z,6.01
2022-10-13T01:57:45.328Z,6.06
2022-10-13T02:02:47.201Z,6.15
2022-10-13T02:07:48.959Z,6.14
2022-10-13T02:12:51.091Z,6.18
2022-10-13T02:17:52.676Z,6.24
2022-10-13T02:22:54.413Z,6.31
2022-10-13T02:27:56.324Z,6.37
2022-10-13T02:32:57.931Z,6.45
2022-10-13T02:37:59.686Z,6.45
2022-10-13T02:43:00.087Z,6.45
2022-10-13T02:48:10.863Z,6.43
2022-10-13T02:53:03.959Z,6.41
2022-10-13T02:58:13.673Z,6.39
2022-10-13T03:03:15.430Z,6.42
2022-10-13T03:08:08.944Z,6.43
2022-10-13T03:13:18.373Z,6.45
2022-10-13T03:18:12.084Z,6.49
2022-10-13T03:23:13.819Z,6.5
2022-10-13T03:28:25.270Z,6.5
2022-10-13T03:33:16.801Z,6.5
2022-10-13T03:38:27.986Z,6.49
2022-10-13T03:43:20.168Z,6.47
2022-10-13T03:48:29.716Z,6.46
2022-10-13T03:53:22.846Z,6.49
2022-10-13T03:58:24.725Z,6.56
2022-10-13T04:03:26.696Z,6.57
2022-10-13T04:08:28.526Z,6.6
2022-10-13T04:13:29.883Z,6.62
2022-10-13T04:18:44.607Z,6.63
2022-10-13T04:23:33.200Z,6.66
2022-10-13T04:28:34.777Z,6.69
2022-10-13T04:33:36.477Z,6.73
2022-10-13T04:38:38.087Z,6.76
2022-10-13T04:43:39.712Z,6.81
2022-10-13T04:48:41.108Z,6.83
2022-10-13T04:53:42.970Z,6.88
2022-10-13T04:58:55.166Z,6.92
2022-10-13T05:03:46.916Z,6.97
2022-10-13T05:08:48.659Z,7.01
2022-10-13T05:13:50.310Z,7.05
2022-10-13T05:18:51.663Z,7.08
2022-10-13T05:23:53.470Z,7.17
2022-10-13T05:28:55.085Z,7.2
2022-10-13T05:33:56.173Z,7.26
2022-10-13T05:38:58.157Z,7.29
2022-10-13T05:43:59.940Z,7.36
2022-10-13T05:49:02.042Z,7.4
2022-10-13T05:54:03.955Z,7.49
2022-10-13T05:59:15.789Z,7.53
2022-10-13T06:04:07.275Z,7.61
2022-10-13T06:09:09.043Z,7.7
2022-10-13T06:14:10.760Z,7.79
2022-10-13T06:19:12.912Z,7.87
2022-10-13T06:24:15.124Z,7.95
2022-10-13T06:29:27.059Z,8.01
2022-10-13T06:34:18.956Z,8.1
2022-10-13T06:39:21.052Z,8.16
2022-10-13T06:44:22.992Z,8.25
2022-10-13T06:49:34.857Z,8.32
2022-10-13T06:54:26.742Z,8.42
2022-10-13T06:59:28.585Z,8.49
2022-10-13T07:04:30.728Z,8.6
2022-10-13T07:09:32.193Z,8.68
2022-10-13T07:14:33.992Z,8.85
2022-10-13T07:19:45.578Z,8.97
2022-10-13T07:24:37.086Z,9.08
2022-10-13T07:29:49.319Z,9.18
2022-10-13T07:34:41.627Z,9.38
2022-10-13T07:40:42.523Z,9.63
2022-10-13T07:44:45.249Z,9.68
2022-10-13T07:49:46.788Z,9.76
2022-10-13T07:54:48.642Z,9.89
2022-10-13T07:59:50.022Z,9.97
2022-10-13T08:04:52.091Z,10.1
2022-10-13T08:09:53.868Z,10.21
2022-10-13T08:14:55.790Z,10.34
2022-10-13T08:19:57.678Z,10.47
2022-10-13T08:24:59.730Z,10.54
2022-10-13T08:30:01.710Z,10.69
2022-10-13T08:35:04.300Z,10.8
2022-10-13T08:40:04.964Z,10.9
2022-10-13T08:45:40.199Z,11
2022-10-13T08:50:09.115Z,11.16
2022-10-13T08:55:10.879Z,11.35
2022-10-13T09:00:12.408Z,11.52
2022-10-13T09:06:01.995Z,11.85
2022-10-13T09:10:16.466Z,11.85
2022-10-13T09:16:06.089Z,12.17
2022-10-13T09:20:19.780Z,12.16
2022-10-13T09:25:21.915Z,12.41
2022-10-13T09:30:24.079Z,12.55
2022-10-13T09:35:26.138Z,12.79
2022-10-13T09:41:15.671Z,13.16
2022-10-13T09:45:29.824Z,13.17
2022-10-13T09:45:39.404Z,13.18
2022-10-13T09:50:40.922Z,13.34
2022-10-13T09:55:42.627Z,13.42
2022-10-13T10:00:44.335Z,13.62
2022-10-13T10:05:46.314Z,13.78
2022-10-13T10:10:47.941Z,13.93
2022-10-13T10:15:49.964Z,14.04
2022-10-13T10:20:51.563Z,14.13
2022-10-13T10:25:53.492Z,14.21
2022-10-13T10:30:55.128Z,14.28
2022-10-13T10:35:57.174Z,14.37
2022-10-13T10:40:59.230Z,14.39
2022-10-13T10:46:00.535Z,14.46
2022-10-13T10:51:02.341Z,14.43
2022-10-13T10:56:04.296Z,14.38
2022-10-13T11:01:06.053Z,14.51
2022-10-13T11:06:07.872Z,14.74
2022-10-13T11:11:09.543Z,14.77
2022-10-13T11:16:11.714Z,14.86
2022-10-13T11:21:13.109Z,14.9
2022-10-13T11:26:14.927Z,15.09
2022-10-13T11:31:16.305Z,15.16
2022-10-13T11:36:18.458Z,15.36
2022-10-13T11:41:19.695Z,15.53
2022-10-13T11:46:21.201Z,15.58
2022-10-13T11:51:23.433Z,15.65
2022-10-13T11:56:24.652Z,15.69
2022-10-13T12:01:26.575Z,15.8
2022-10-13T12:06:28.394Z,15.74
2022-10-13T12:11:29.727Z,15.83
2022-10-13T12:16:31.151Z,15.66
2022-10-13T12:21:32.950Z,15.7
2022-10-13T12:26:34.816Z,15.73
2022-10-13T12:31:36.740Z,15.75
2022-10-13T12:36:38.426Z,15.72
2022-10-13T12:41:39.557Z,15.79
2022-10-13T12:46:41.252Z,15.8
2022-10-13T12:51:43.136Z,15.79
2022-10-13T12:56:44.466Z,15.85
2022-10-13T13:01:45.879Z,15.84
2022-10-13T13:06:47.969Z,15.87
2022-10-13T13:11:49.434Z,15.88
2022-10-13T13:41:58.722Z,15.9
2022-10-13T13:46:59.887Z,15.91
2022-10-13T13:57:03.020Z,15.84
2022-10-13T14:02:52.575Z,15.97
2022-10-13T14:17:09.929Z,15.68
2022-10-13T14:27:13.338Z,15.63
2022-10-13T14:32:15.461Z,15.61
2022-10-13T14:37:19.862Z,15.59
2022-10-13T14:42:18.193Z,15.62
2022-10-13T14:47:19.874Z,15.54
2022-10-13T14:52:21.559Z,15.55
2022-10-13T14:57:23.304Z,15.48
2022-10-13T15:02:24.904Z,15.47
2022-10-13T15:07:26.059Z,15.42
2022-10-13T15:13:15.706Z,15.59
2022-10-13T15:17:29.145Z,15.45
2022-10-13T15:22:31.105Z,15.24
2022-10-13T15:27:33.724Z,15.28
2022-10-13T15:32:34.482Z,15.24
2022-10-13T15:37:36.525Z,15.17
2022-10-13T15:42:38.019Z,15.12
2022-10-13T15:47:39.368Z,15.02
2022-10-13T15:52:41.319Z,14.95
2022-10-13T15:57:42.409Z,14.86
2022-10-13T16:02:44.510Z,14.78
2022-10-13T16:07:46.507Z,14.67
2022-10-13T16:12:49.714Z,14.6
2022-10-13T16:17:50.147Z,14.47
2022-10-13T16:22:51.772Z,14.37
2022-10-13T16:27:52.997Z,14.24
2022-10-13T16:32:55.065Z,14.16
2022-10-13T16:37:57.144Z,14.08
2022-10-13T16:42:58.520Z,13.99
2022-10-13T16:47:59.991Z,13.91
2022-10-13T16:53:01.350Z,13.84
2022-10-13T16:58:02.706Z,13.77
2022-10-13T17:03:04.611Z,13.7
2022-10-13T17:08:05.975Z,13.64
2022-10-13T17:13:55.584Z,13.75
2022-10-13T17:19:45.204Z,13.78
2022-10-13T17:23:11.776Z,13.54
2022-10-13T17:28:13.722Z,13.41
2022-10-13T17:33:15.328Z,13.33
2022-10-13T17:38:17.401Z,13.25
2022-10-13T17:43:19.028Z,13.18
2022-10-13T17:48:23.152Z,13.1
2022-10-13T17:53:23.273Z,13.03
2022-10-13T17:58:24.519Z,12.94
2022-10-13T18:03:26.302Z,12.85
2022-10-13T18:08:28.137Z,12.77
2022-10-13T18:13:30.204Z,12.7
2022-10-13T18:18:31.613Z,12.61
2022-10-13T18:23:33.156Z,12.54
2022-10-13T18:28:35.298Z,12.46
2022-10-13T18:33:36.828Z,12.38
2022-10-13T18:38:38.783Z,12.31
2022-10-13T18:43:40.664Z,12.24
2022-10-13T18:48:42.291Z,12.15
2022-10-13T18:53:44.082Z,12.07
2022-10-13T18:58:46.225Z,11.98
2022-10-13T19:03:47.630Z,11.89
2022-10-13T19:08:49.582Z,11.82
2022-10-13T19:13:51.222Z,11.72
2022-10-13T19:18:53.093Z,11.65
2022-10-13T19:23:55.158Z,11.62
2022-10-13T19:29:44.671Z,11.73
2022-10-13T19:33:57.653Z,11.55
2022-10-13T19:38:59.551Z,11.47
2022-10-13T19:44:01.249Z,11.41
2022-10-13T19:49:03.159Z,11.37
2022-10-13T19:54:05.301Z,11.36
2022-10-13T19:59:07.406Z,11.36
2022-10-13T20:04:09.352Z,11.28
2022-10-13T20:09:11.024Z,11.26
2022-10-13T20:14:13.117Z,11.22
2022-10-13T20:19:14.716Z,11.2
2022-10-13T20:24:16.303Z,11.16
2022-10-13T20:29:17.513Z,11.13
2022-10-13T20:34:20.231Z,11.11
2022-10-13T20:40:09.975Z,11.24
2022-10-13T20:44:22.560Z,11.08
2022-10-13T20:49:24.052Z,11.02
2022-10-13T20:54:25.766Z,11.02
2022-10-13T20:59:27.604Z,10.97
2022-10-13T21:04:28.700Z,10.98
2022-10-13T21:09:30.183Z,10.94
2022-10-13T21:14:32.217Z,10.94
2022-10-13T21:19:33.696Z,10.89
2022-10-13T21:24:35.056Z,10.91
2022-10-13T21:29:36.738Z,10.88
2022-10-13T21:34:37.858Z,10.88
2022-10-13T21:39:39.798Z,10.87
2022-10-13T21:44:41.959Z,10.87
2022-10-13T21:49:43.942Z,10.88
2022-10-13T21:54:46.154Z,10.89
2022-10-13T21:59:47.388Z,10.9
2022-10-13T22:14:53.524Z,10.98
2022-10-13T22:19:55.648Z,11
2022-10-13T22:24:57.632Z,11.06
2022-10-13T22:29:59.658Z,11.2
2022-10-13T22:35:01.184Z,11.37
2022-10-13T22:40:03.224Z,11.5
2022-10-13T22:45:04.877Z,11.49
2022-10-13T22:50:06.544Z,11.45
2022-10-13T22:55:08.373Z,11.36
2022-10-13T23:00:09.808Z,11.31
2022-10-13T23:05:11.027Z,11.25
2022-10-13T23:10:13.124Z,11.22
2022-10-13T23:15:14.409Z,11.18
2022-10-13T23:20:16.208Z,11.15
2022-10-13T23:25:18.161Z,11.14
2022-10-13T23:30:20.202Z,11.14
2022-10-13T23:35:22.002Z,11.13
2022-10-13T23:40:23.241Z,11.12
2022-10-13T23:45:23.817Z,11.14
2022-10-13T23:50:25.591Z,11.09
2022-10-13T23:55:27.936Z,11.09
